createdAt,value
2018-05-23T00:00:45.091Z,99.90
2018-05-23T00:03:13.973Z,99.90
2018-05-23T00:05:43.661Z,99.90
2018-05-23T00:08:12.541Z,99.90
2018-05-23T00:10:42.180Z,99.90
2018-05-23T00:13:11.076Z,99.90
2018-05-23T00:15:39.983Z,99.90
2018-05-23T00:18:09.628Z,99.90
2018-05-23T00:20:38.504Z,99.90
2018-05-23T00:23:07.403Z,99.90
2018-05-23T00:37:30.136Z,99.90
2018-05-23T00:39:59.025Z,99.90
2018-05-23T00:42:27.953Z,99.90
2018-05-23T00:44:56.832Z,99.90
2018-05-23T00:47:25.707Z,99.90
2018-05-23T00:49:54.619Z,99.90
2018-05-23T00:52:23.498Z,99.90
2018-05-23T00:55:10.155Z,99.90
2018-05-23T00:57:39.033Z,99.90
2018-05-23T01:00:07.909Z,99.90
2018-05-23T01:02:36.803Z,99.90
2018-05-23T01:05:05.682Z,99.90
2018-05-23T01:07:34.596Z,99.90
2018-05-23T01:10:03.510Z,99.90
2018-05-23T01:12:32.388Z,99.90
2018-05-23T01:15:01.288Z,99.90
2018-05-23T01:17:30.166Z,99.90
2018-05-23T01:19:59.081Z,99.90
2018-05-23T01:22:27.975Z,99.90
2018-05-23T01:24:56.868Z,99.90
2018-05-23T01:27:26.555Z,99.90
2018-05-23T01:29:55.434Z,99.90
2018-05-23T01:32:25.132Z,99.90
2018-05-23T01:34:54.027Z,99.90
2018-05-23T01:37:22.986Z,99.90
2018-05-23T01:39:51.867Z,99.90
2018-05-23T01:42:20.746Z,99.90
2018-05-23T01:44:49.652Z,99.90
2018-05-23T01:47:19.292Z,99.90
2018-05-23T01:49:48.190Z,99.90
2018-05-23T01:52:17.071Z,99.90
2018-05-23T01:54:45.948Z,99.90
2018-05-23T01:57:15.632Z,99.90
2018-05-23T01:59:44.513Z,99.90
2018-05-23T02:02:13.403Z,99.90
2018-05-23T02:04:43.088Z,99.90
2018-05-23T02:07:12.727Z,99.90
2018-05-23T02:09:41.623Z,99.90
2018-05-23T02:12:11.285Z,99.90
2018-05-23T02:14:40.164Z,99.90
2018-05-23T02:17:09.063Z,99.90
2018-05-23T02:19:37.968Z,99.90
2018-05-23T02:22:07.632Z,99.90
2018-05-23T02:24:36.532Z,99.90
2018-05-23T02:27:05.432Z,99.90
2018-05-23T02:29:34.301Z,99.90
2018-05-23T02:32:03.995Z,99.90
2018-05-23T02:34:32.867Z,99.90
2018-05-23T02:37:02.508Z,99.90
2018-05-23T02:39:31.437Z,99.90
2018-05-23T02:42:01.080Z,99.90
2018-05-23T02:44:29.959Z,99.90
2018-05-23T02:46:58.873Z,99.90
2018-05-23T02:49:28.523Z,99.90
2018-05-23T02:51:57.397Z,99.90
2018-05-23T02:54:26.317Z,99.90
2018-05-23T02:56:55.977Z,99.90
2018-05-23T02:59:24.858Z,99.90
2018-05-23T03:01:53.751Z,99.90
2018-05-23T03:04:23.425Z,99.90
2018-05-23T03:06:52.307Z,99.90
2018-05-23T03:09:21.183Z,99.90
2018-05-23T03:11:50.080Z,99.90
2018-05-23T03:14:19.719Z,99.90
2018-05-23T03:16:49.429Z,99.90
2018-05-23T03:19:18.307Z,99.90
2018-05-23T03:21:47.176Z,99.90
2018-05-23T03:24:16.082Z,99.90
2018-05-23T03:26:44.985Z,99.90
2018-05-23T03:29:13.899Z,99.90
2018-05-23T03:31:42.774Z,99.90
2018-05-23T03:34:11.647Z,99.90
2018-05-23T03:36:40.559Z,99.90
2018-05-23T03:39:10.211Z,99.90
2018-05-23T03:41:39.092Z,99.90
2018-05-23T03:44:08.017Z,99.90
2018-05-23T03:46:36.903Z,99.90
2018-05-23T03:49:05.780Z,99.90
2018-05-23T03:51:34.759Z,99.90
2018-05-23T03:54:04.019Z,99.90
2018-05-23T03:56:34.275Z,99.90
2018-05-23T03:59:03.189Z,99.90
2018-05-23T04:01:50.792Z,99.90
2018-05-23T04:04:37.525Z,99.90
2018-05-23T04:10:14.511Z,99.90
2018-05-23T04:12:43.415Z,99.90
2018-05-23T04:15:12.296Z,99.90
2018-05-23T04:17:41.167Z,99.20
2018-05-23T04:20:10.061Z,98.50
2018-05-23T04:22:39.715Z,97.80
2018-05-23T04:25:08.609Z,97.80
2018-05-23T04:27:37.484Z,98.20
2018-05-23T04:30:06.411Z,98.30
2018-05-23T04:32:35.289Z,98.50
2018-05-23T04:35:04.168Z,98.40
2018-05-23T04:37:33.067Z,98.50
2018-05-23T04:40:01.959Z,98.80
2018-05-23T04:42:30.858Z,99.10
2018-05-23T04:45:00.516Z,99.00
2018-05-23T04:47:29.403Z,99.00
2018-05-23T04:49:58.280Z,99.20
2018-05-23T04:52:27.173Z,99.30
2018-05-23T04:54:56.868Z,99.90
2018-05-23T04:57:26.512Z,99.00
2018-05-23T04:59:55.381Z,99.00
2018-05-23T05:02:24.275Z,98.30
2018-05-23T05:04:53.159Z,97.90
2018-05-23T05:07:22.041Z,97.80
2018-05-23T05:09:51.717Z,96.70
2018-05-23T05:12:20.624Z,96.70
2018-05-23T05:14:50.256Z,95.10
2018-05-23T05:17:19.128Z,95.10
2018-05-23T05:19:48.023Z,92.30
2018-05-23T05:22:16.935Z,88.00
2018-05-23T05:24:46.579Z,86.90
2018-05-23T05:27:15.447Z,86.80
2018-05-23T05:29:44.339Z,82.40
2018-05-23T05:32:13.975Z,78.80
2018-05-23T05:34:43.643Z,73.90
2018-05-23T05:37:12.512Z,73.80
2018-05-23T05:39:41.375Z,73.50
2018-05-23T05:42:10.272Z,74.60
2018-05-23T05:44:39.153Z,72.80
2018-05-23T05:47:08.028Z,71.40
2018-05-23T05:49:37.690Z,67.60
2018-05-23T05:52:06.563Z,66.80
2018-05-23T05:54:35.471Z,66.60
2018-05-23T05:57:04.351Z,65.80
2018-05-23T05:59:33.987Z,64.90
2018-05-23T06:02:02.900Z,64.90
2018-05-23T06:04:31.782Z,64.60
2018-05-23T06:07:00.656Z,66.30
2018-05-23T06:09:29.625Z,66.40
2018-05-23T06:11:58.472Z,65.30
2018-05-23T06:14:27.341Z,66.30
2018-05-23T06:16:56.231Z,63.50
2018-05-23T06:19:25.127Z,60.60
2018-05-23T06:21:54.019Z,59.60
2018-05-23T06:24:23.658Z,62.80
2018-05-23T06:26:52.551Z,62.80
2018-05-23T06:29:21.422Z,61.80
2018-05-23T06:31:50.327Z,64.40
2018-05-23T06:34:19.199Z,62.70
2018-05-23T06:36:48.074Z,63.40
2018-05-23T06:39:16.983Z,61.50
2018-05-23T06:41:45.857Z,63.80
2018-05-23T06:44:14.732Z,62.70
2018-05-23T06:46:43.647Z,60.30
2018-05-23T06:49:12.514Z,59.10
2018-05-23T06:51:41.383Z,58.90
2018-05-23T06:54:10.279Z,62.00
2018-05-23T06:56:39.196Z,58.80
2018-05-23T06:59:08.832Z,59.20
2018-05-23T07:01:37.703Z,59.20
2018-05-23T07:04:06.593Z,58.00
2018-05-23T07:06:36.207Z,59.20
2018-05-23T07:09:05.859Z,56.60
2018-05-23T07:11:34.755Z,55.90
2018-05-23T07:14:03.645Z,54.20
2018-05-23T07:16:32.542Z,55.80
2018-05-23T07:19:02.187Z,53.10
2018-05-23T07:21:31.059Z,53.10
2018-05-23T07:23:59.981Z,55.40
2018-05-23T07:26:29.624Z,54.30
2018-05-23T07:28:58.499Z,54.30
2018-05-23T07:31:27.436Z,52.60
2018-05-23T07:33:56.318Z,54.00
2018-05-23T07:36:25.193Z,53.50
2018-05-23T07:38:54.083Z,53.60
2018-05-23T07:41:22.962Z,54.80
2018-05-23T07:43:51.858Z,55.00
2018-05-23T07:46:20.752Z,52.70
2018-05-23T07:48:49.631Z,51.40
2018-05-23T07:51:18.553Z,52.20
2018-05-23T07:53:47.428Z,51.20
2018-05-23T07:56:16.305Z,52.80
2018-05-23T07:58:45.200Z,51.80
2018-05-23T08:01:14.076Z,50.70
2018-05-23T08:03:42.969Z,51.10
2018-05-23T08:06:11.871Z,49.60
2018-05-23T08:08:41.511Z,49.80
2018-05-23T08:11:10.380Z,49.80
2018-05-23T08:13:39.272Z,50.20
2018-05-23T08:16:08.143Z,49.50
2018-05-23T08:18:37.035Z,50.60
2018-05-23T08:21:05.924Z,54.70
2018-05-23T08:23:34.795Z,54.80
2018-05-23T08:26:03.692Z,51.90
2018-05-23T08:28:33.328Z,53.00
2018-05-23T08:31:02.204Z,53.00
2018-05-23T08:33:31.128Z,54.80
2018-05-23T08:36:00.771Z,57.50
2018-05-23T08:38:29.663Z,57.40
2018-05-23T08:40:58.541Z,56.50
2018-05-23T08:43:27.415Z,55.60
2018-05-23T08:45:56.378Z,56.20
2018-05-23T08:48:25.223Z,57.10
2018-05-23T08:50:54.097Z,55.80
2018-05-23T08:53:22.988Z,57.60
2018-05-23T08:55:51.866Z,55.30
2018-05-23T08:58:20.783Z,54.40
2018-05-23T09:00:49.651Z,56.50
2018-05-23T09:03:18.518Z,57.40
2018-05-23T09:05:47.410Z,56.30
2018-05-23T09:08:17.044Z,58.10
2018-05-23T09:10:45.983Z,57.50
2018-05-23T09:13:15.636Z,58.70
2018-05-23T09:15:44.521Z,58.70
2018-05-23T09:18:13.429Z,58.50
2018-05-23T09:20:43.082Z,59.50
2018-05-23T09:23:11.963Z,59.50
2018-05-23T09:25:40.857Z,60.00
2018-05-23T09:28:09.727Z,60.70
2018-05-23T09:30:38.604Z,60.30
2018-05-23T09:33:07.504Z,57.90
2018-05-23T09:35:36.374Z,57.50
2018-05-23T09:38:05.286Z,57.40
2018-05-23T09:40:34.159Z,57.70
2018-05-23T09:43:03.028Z,57.00
2018-05-23T09:45:31.925Z,55.30
2018-05-23T09:48:00.803Z,54.90
2018-05-23T09:50:29.711Z,54.50
2018-05-23T09:52:59.351Z,54.60
2018-05-23T09:55:28.227Z,54.60
2018-05-23T09:57:57.132Z,55.30
2018-05-23T10:00:26.003Z,57.10
2018-05-23T10:02:54.870Z,56.20
2018-05-23T10:05:23.783Z,56.40
2018-05-23T10:07:53.424Z,56.90
2018-05-23T10:10:22.303Z,56.20
2018-05-23T10:12:51.308Z,53.60
2018-05-23T10:15:20.128Z,54.20
2018-05-23T10:17:49.027Z,54.70
2018-05-23T10:20:17.912Z,55.10
2018-05-23T10:22:46.812Z,56.50
2018-05-23T10:25:16.491Z,54.80
2018-05-23T10:27:45.364Z,55.40
2018-05-23T10:30:14.234Z,54.80
2018-05-23T10:32:43.133Z,54.40
2018-05-23T10:35:12.818Z,55.60
2018-05-23T10:37:41.698Z,55.50
2018-05-23T10:40:11.344Z,58.40
2018-05-23T10:42:40.262Z,58.40
2018-05-23T10:45:09.144Z,57.90
2018-05-23T10:47:38.799Z,61.60
2018-05-23T10:50:07.730Z,61.50
2018-05-23T10:52:36.612Z,59.40
2018-05-23T10:55:05.496Z,60.70
2018-05-23T10:57:35.413Z,60.30
2018-05-23T11:00:04.338Z,59.50
2018-05-23T11:02:33.998Z,62.30
2018-05-23T11:05:03.677Z,61.90
2018-05-23T11:07:32.558Z,61.90
2018-05-23T11:10:01.468Z,60.50
2018-05-23T11:12:31.103Z,61.00
2018-05-23T11:15:00.001Z,60.20
2018-05-23T11:17:28.896Z,60.80
2018-05-23T11:19:57.771Z,59.70
2018-05-23T11:22:26.671Z,59.50
2018-05-23T11:24:56.318Z,58.00
2018-05-23T11:27:25.212Z,57.90
2018-05-23T11:29:54.110Z,56.50
2018-05-23T11:32:23.767Z,57.70
2018-05-23T11:34:52.663Z,57.70
2018-05-23T11:37:21.631Z,61.20
2018-05-23T11:39:50.483Z,60.20
2018-05-23T11:42:19.356Z,62.60
2018-05-23T11:44:48.248Z,59.70
2018-05-23T11:47:17.121Z,59.70
2018-05-23T11:49:46.017Z,58.20
2018-05-23T11:52:15.677Z,57.50
2018-05-23T11:54:44.705Z,57.40
2018-05-23T11:57:13.502Z,55.60
2018-05-23T11:59:42.373Z,55.30
2018-05-23T12:02:11.263Z,54.60
2018-05-23T12:04:40.180Z,55.00
2018-05-23T12:07:09.072Z,54.70
2018-05-23T12:09:38.711Z,54.90
2018-05-23T12:12:07.611Z,55.00
2018-05-23T12:14:36.489Z,55.40
2018-05-23T12:17:05.420Z,57.10
2018-05-23T12:19:34.371Z,56.00
2018-05-23T12:22:03.194Z,55.00
2018-05-23T12:24:32.101Z,57.60
2018-05-23T12:27:00.988Z,56.90
2018-05-23T12:29:30.632Z,56.10
2018-05-23T12:31:59.526Z,56.00
2018-05-23T12:34:28.415Z,54.90
2018-05-23T12:36:57.302Z,54.90
2018-05-23T12:39:27.840Z,56.10
2018-05-23T12:41:56.744Z,56.20
2018-05-23T12:44:25.618Z,58.60
2018-05-23T12:46:54.487Z,59.20
2018-05-23T12:49:23.401Z,59.40
2018-05-23T12:51:52.273Z,57.70
2018-05-23T12:54:21.939Z,60.30
2018-05-23T12:56:50.857Z,60.20
2018-05-23T12:59:20.524Z,64.30
2018-05-23T13:01:49.418Z,64.20
2018-05-23T13:04:19.082Z,65.10
2018-05-23T13:06:47.948Z,64.40
2018-05-23T13:09:16.848Z,63.60
2018-05-23T13:11:45.723Z,64.10
2018-05-23T13:14:14.620Z,62.30
2018-05-23T13:16:44.297Z,58.50
2018-05-23T13:19:13.163Z,58.50
2018-05-23T13:21:42.035Z,57.80
2018-05-23T13:24:10.950Z,57.00
2018-05-23T13:26:39.823Z,57.10
2018-05-23T13:29:08.691Z,59.50
2018-05-23T13:31:37.607Z,57.20
2018-05-23T13:34:06.474Z,58.50
2018-05-23T13:36:36.184Z,59.00
2018-05-23T13:39:06.019Z,59.30
2018-05-23T13:41:35.659Z,58.10
2018-05-23T13:44:04.549Z,58.10
2018-05-23T13:46:33.469Z,59.30
2018-05-23T13:49:03.108Z,59.10
2018-05-23T13:51:32.069Z,59.10
2018-05-23T13:54:00.968Z,59.90
2018-05-23T13:56:29.836Z,59.50
2018-05-23T13:58:59.477Z,59.30
2018-05-23T14:01:28.477Z,59.30
2018-05-23T14:03:57.348Z,59.70
2018-05-23T14:06:26.223Z,59.60
2018-05-23T14:08:55.119Z,59.20
2018-05-23T14:11:23.988Z,59.90
2018-05-23T14:13:52.856Z,60.00
2018-05-23T14:16:21.751Z,60.30
2018-05-23T14:18:50.650Z,56.30
2018-05-23T14:21:19.559Z,57.50
2018-05-23T14:23:49.196Z,57.70
2018-05-23T14:26:18.073Z,57.70
2018-05-23T14:28:46.964Z,57.80
2018-05-23T14:31:15.845Z,57.80
2018-05-23T14:33:44.748Z,57.20
2018-05-23T14:36:14.401Z,56.00
2018-05-23T14:38:43.268Z,56.00
2018-05-23T14:41:12.222Z,56.90
2018-05-23T14:43:41.262Z,56.00
2018-05-23T14:46:10.005Z,55.10
2018-05-23T14:48:38.895Z,55.40
2018-05-23T14:51:07.781Z,54.30
2018-05-23T14:53:37.483Z,54.50
2018-05-23T14:56:07.122Z,53.20
2018-05-23T14:58:36.021Z,53.70
2018-05-23T15:01:04.925Z,52.70
2018-05-23T15:03:34.567Z,55.60
2018-05-23T15:06:03.471Z,55.50
2018-05-23T15:08:32.348Z,55.60
2018-05-23T15:11:01.999Z,54.70
2018-05-23T15:13:30.920Z,54.70
2018-05-23T15:16:00.562Z,56.10
2018-05-23T15:18:29.435Z,56.10
2018-05-23T15:20:58.344Z,55.80
2018-05-23T15:23:28.720Z,54.80
2018-05-23T15:25:57.611Z,54.80
2018-05-23T15:28:26.479Z,54.20
2018-05-23T15:30:55.370Z,53.80
2018-05-23T15:33:24.260Z,53.60
2018-05-23T15:35:53.133Z,52.20
2018-05-23T15:38:22.038Z,52.90
2018-05-23T15:40:51.667Z,51.70
2018-05-23T15:43:20.535Z,51.70
2018-05-23T15:45:49.447Z,52.40
2018-05-23T15:48:18.320Z,51.90
2018-05-23T15:50:47.188Z,51.50
2018-05-23T15:53:16.084Z,52.10
2018-05-23T15:55:44.963Z,53.50
2018-05-23T15:58:14.614Z,53.90
2018-05-23T16:00:43.512Z,53.90
2018-05-23T16:03:12.391Z,54.90
2018-05-23T16:05:41.260Z,55.00
2018-05-23T16:08:10.149Z,55.00
2018-05-23T16:10:39.062Z,56.00
2018-05-23T16:13:08.015Z,55.80
2018-05-23T16:15:37.654Z,55.20
2018-05-23T16:18:06.559Z,55.10
2018-05-23T16:20:35.545Z,55.00
2018-05-23T16:23:04.360Z,54.00
2018-05-23T16:25:33.247Z,54.50
2018-05-23T16:28:02.121Z,54.10
2018-05-23T16:30:31.048Z,54.20
2018-05-23T16:33:00.686Z,55.00
2018-05-23T16:35:29.587Z,55.00
2018-05-23T16:37:58.475Z,55.00
2018-05-23T16:40:27.347Z,55.10
2018-05-23T16:42:56.243Z,55.30
2018-05-23T16:45:25.891Z,55.70
2018-05-23T16:47:54.772Z,55.70
2018-05-23T16:50:23.669Z,56.60
2018-05-23T16:52:52.926Z,56.00
2018-05-23T16:55:21.803Z,56.50
2018-05-23T16:57:50.699Z,57.00
2018-05-23T17:00:19.615Z,56.30
2018-05-23T17:02:48.489Z,55.80
2018-05-23T17:05:17.363Z,55.90
2018-05-23T17:07:46.254Z,55.50
2018-05-23T17:10:15.123Z,56.00
2018-05-23T17:12:44.040Z,56.20
2018-05-23T17:15:12.916Z,57.40
2018-05-23T17:17:41.791Z,57.50
2018-05-23T17:20:10.696Z,57.40
2018-05-23T17:22:40.327Z,58.40
2018-05-23T17:25:09.195Z,58.30
2018-05-23T17:27:38.091Z,58.40
2018-05-23T17:30:06.964Z,59.00
2018-05-23T17:32:35.836Z,59.80
2018-05-23T17:35:04.750Z,60.10
2018-05-23T17:37:34.391Z,63.80
2018-05-23T17:40:03.311Z,63.80
2018-05-23T17:42:32.185Z,66.60
2018-05-23T17:45:01.062Z,69.50
2018-05-23T17:47:29.955Z,70.90
2018-05-23T17:49:59.598Z,73.30
2018-05-23T17:52:28.488Z,73.30
2018-05-23T17:54:57.359Z,74.50
2018-05-23T17:57:26.271Z,75.30
2018-05-23T17:59:55.915Z,77.50
2018-05-23T18:02:24.811Z,77.50
2018-05-23T18:04:53.698Z,76.40
2018-05-23T18:07:22.569Z,75.30
2018-05-23T18:09:51.467Z,74.50
2018-05-23T18:12:21.104Z,74.00
2018-05-23T18:14:49.978Z,74.10
2018-05-23T18:17:18.869Z,74.30
2018-05-23T18:19:47.788Z,74.90
2018-05-23T18:22:17.463Z,75.30
2018-05-23T18:24:47.113Z,75.30
2018-05-23T18:27:15.985Z,75.30
2018-05-23T18:29:44.955Z,75.60
2018-05-23T18:32:14.560Z,80.70
2018-05-23T18:34:43.459Z,80.70
2018-05-23T18:37:12.338Z,82.90
2018-05-23T18:39:41.241Z,83.70
2018-05-23T18:42:10.127Z,84.50
2018-05-23T18:44:39.003Z,86.00
2018-05-23T18:47:07.896Z,86.60
2018-05-23T18:49:36.796Z,87.90
2018-05-23T18:52:05.724Z,88.10
2018-05-23T18:54:34.685Z,87.40
2018-05-23T18:57:03.500Z,88.00
2018-05-23T18:59:32.427Z,87.40
2018-05-23T19:02:02.079Z,89.60
2018-05-23T19:04:30.956Z,89.60
2018-05-23T19:06:59.880Z,90.10
2018-05-23T19:09:28.758Z,90.20
2018-05-23T19:11:57.635Z,90.70
2018-05-23T19:14:26.539Z,91.00
2018-05-23T19:16:55.414Z,91.70
2018-05-23T19:19:24.287Z,91.80
2018-05-23T19:21:53.190Z,91.80
2018-05-23T19:24:22.071Z,92.00
2018-05-23T19:26:50.977Z,91.90
2018-05-23T19:29:19.855Z,91.90
2018-05-23T19:31:48.767Z,92.00
2018-05-23T19:34:17.658Z,91.50
2018-05-23T19:36:46.579Z,91.70
2018-05-23T19:39:15.459Z,91.70
2018-05-23T19:41:44.342Z,91.90
2018-05-23T19:44:13.264Z,91.60
2018-05-23T19:46:42.163Z,91.80
2018-05-23T19:49:11.808Z,91.90
2018-05-23T19:51:40.719Z,91.90
2018-05-23T19:54:09.604Z,92.20
2018-05-23T19:56:39.308Z,92.50
2018-05-23T19:59:08.179Z,92.40
2018-05-23T20:01:37.830Z,92.30
2018-05-23T20:04:06.715Z,92.30
2018-05-23T20:06:35.644Z,92.40
2018-05-23T20:09:07.337Z,92.60
2018-05-23T20:11:36.260Z,92.50
2018-05-23T20:14:05.201Z,92.40
2018-05-23T20:16:34.250Z,92.20
2018-05-23T20:19:03.190Z,92.00
2018-05-23T20:21:32.868Z,91.90
2018-05-23T20:24:02.504Z,92.10
2018-05-23T20:26:31.404Z,92.10
2018-05-23T20:29:00.288Z,91.90
2018-05-23T20:31:29.203Z,91.80
2018-05-23T20:33:58.079Z,91.60
2018-05-23T20:36:26.957Z,91.70
2018-05-23T20:38:55.852Z,91.60
2018-05-23T20:41:24.735Z,91.90
2018-05-23T20:43:53.636Z,92.50
2018-05-23T20:46:22.521Z,92.90
2018-05-23T20:48:52.179Z,93.60
2018-05-23T20:51:21.100Z,93.30
2018-05-23T20:53:50.740Z,93.40
2018-05-23T20:56:19.647Z,93.40
2018-05-23T20:58:48.605Z,93.50
2018-05-23T21:01:17.423Z,93.70
2018-05-23T21:03:46.736Z,93.90
2018-05-23T21:06:15.620Z,93.90
2018-05-23T21:08:44.547Z,93.90
2018-05-23T21:11:14.192Z,93.70
2018-05-23T21:13:43.877Z,93.40
2018-05-23T21:16:12.747Z,93.40
2018-05-23T21:18:41.620Z,93.30
2018-05-23T21:21:10.516Z,93.40
2018-05-23T21:23:39.394Z,93.40
2018-05-23T21:26:08.267Z,93.60
2018-05-23T21:28:37.166Z,93.60
2018-05-23T21:31:06.076Z,93.70
2018-05-23T21:33:34.955Z,93.80
2018-05-23T21:36:03.877Z,93.80
2018-05-23T21:38:32.754Z,93.80
2018-05-23T21:41:01.645Z,93.60
2018-05-23T21:43:30.541Z,93.20
2018-05-23T21:45:59.411Z,93.20
2018-05-23T21:48:29.070Z,93.10
2018-05-23T21:50:57.977Z,93.10
2018-05-23T21:53:27.643Z,93.60
2018-05-23T21:55:56.544Z,93.60
2018-05-23T21:58:28.136Z,93.60
2018-05-23T22:00:57.011Z,93.60
2018-05-23T22:03:25.911Z,93.60
2018-05-23T22:05:54.791Z,93.80
2018-05-23T22:08:23.689Z,93.80
2018-05-23T22:10:53.329Z,94.00
2018-05-23T22:13:22.236Z,94.00
2018-05-23T22:15:51.107Z,94.30
2018-05-23T22:18:20.044Z,94.60
2018-05-23T22:20:48.922Z,94.60
2018-05-23T22:23:17.796Z,94.30
2018-05-23T22:25:46.672Z,94.50
2018-05-23T22:28:15.568Z,94.40
2018-05-23T22:30:44.450Z,94.30
2018-05-23T22:33:14.106Z,94.50
2018-05-23T22:35:43.015Z,94.40
2018-05-23T22:38:12.751Z,94.50
2018-05-23T22:40:41.623Z,94.40
2018-05-23T22:43:10.519Z,94.50
2018-05-23T22:45:39.391Z,94.60
2018-05-23T22:48:08.293Z,94.70
2018-05-23T22:50:37.932Z,94.90
2018-05-23T22:53:06.826Z,95.20
2018-05-23T22:55:35.747Z,94.90
2018-05-23T22:58:04.620Z,95.00
2018-05-23T23:00:33.527Z,95.10
2018-05-23T23:03:03.360Z,95.40
2018-05-23T23:05:32.241Z,95.40
2018-05-23T23:08:01.143Z,95.70
2018-05-23T23:10:30.019Z,95.90
2018-05-23T23:12:59.728Z,96.10
2018-05-23T23:15:28.604Z,96.10
2018-05-23T23:17:57.480Z,96.30
2018-05-23T23:20:27.140Z,96.40
2018-05-23T23:22:56.018Z,96.30
2018-05-23T23:25:24.934Z,96.40
2018-05-23T23:27:54.598Z,96.60
2018-05-23T23:30:23.471Z,96.60
2018-05-23T23:32:52.372Z,96.60
2018-05-23T23:35:22.023Z,96.60
2018-05-23T23:37:50.940Z,96.60
2018-05-23T23:40:20.582Z,96.90
2018-05-23T23:42:49.460Z,96.90
2018-05-23T23:45:18.359Z,96.80
2018-05-23T23:47:47.232Z,96.90
2018-05-23T23:50:16.145Z,96.90
2018-05-23T23:52:45.020Z,97.00
2018-05-23T23:55:13.894Z,97.10
2018-05-23T23:57:42.808Z,97.10
